^^
Station Historical Data
 
Daily Summary for February 19, 2019 Units:  Metric    English   Both
« Previous Day
Next Day »
Daily Weekly Monthly Yearly Custom
  Current: High: Low: Average:
Temperature: 7.2 °C -17.8 °C 1.2 °C 3.4 °C
Dew Point: 4.5 °C -17.8 °C -1.6 °C 0.7 °C
Humidity: 83 % Humidity % 76 % 82 %
Wind Speed: 4.8 km/h 0 km/h 0 km/h 8.5 km/h
Wind Gust: 24.1 km/h 0 km/h - -
Wind:SSE - - South
Pressure: 1013.8 hPa 0 hPa 1013.8 hPa -
Precipitation: 0.25 mm      
Historical Graphs
 
 


Weather Camera

Weather Camera




Garrymore Current Conditions

Find more about Weather in Mountmellick, IE
Click for weather forecast
Tabular Data for February 19, 2019
Time Temperature Dew Point Pressure Wind Wind Speed Wind Gust Humidity Rainfall Rate (Hourly) solar Conditions
-17.8 °C -17.8 °C 0 hPa Calm     Humidity % 0 mm SolarRadiationWatts/m^2 W/m2 Conditions
00:00 4.8 °C 1.7 °C 1017.2 hPa Calm   12.9 km/h 80 % 0 mm 0.00 W/m2 RA
00:05 4.7 °C 1.6 °C 1017.2 hPa Calm   1.6 km/h 80 % 0 mm 0.00 W/m2 RA
00:10 4.5 °C 1.3 °C 1017.5 hPa South 8 km/h 11.3 km/h 80 % 0 mm 0.00 W/m2 BKN
00:15 4.1 °C 1 °C 1017.2 hPa South 8 km/h 11.3 km/h 80 % 0 mm 0.00 W/m2 BKN
00:20 4.1 °C 1.1 °C 1017.2 hPa South 4.8 km/h 9.7 km/h 81 % 0 mm 0.00 W/m2 BKN
00:25 4 °C 1.1 °C 1017.2 hPa South 4.8 km/h 11.3 km/h 81 % 0 mm 0.00 W/m2 BKN
00:35 3.8 °C 1 °C 1017.2 hPa SSW 4.8 km/h 11.3 km/h 82 % 0 mm 0.00 W/m2 BKN
00:40 3.7 °C 1.1 °C 1017.2 hPa Calm   9.7 km/h 83 % 0 mm 0.00 W/m2 BKN
00:45 3.6 °C 1 °C 1017.2 hPa South 8 km/h 11.3 km/h 83 % 0 mm 0.00 W/m2 BKN
00:50 3.6 °C 1 °C 1017.2 hPa South 8 km/h 16.1 km/h 83 % 0 mm 0.00 W/m2 SCT
00:55 3.5 °C 0.9 °C 1017.2 hPa South 9.7 km/h 12.9 km/h 83 % 0 mm 0.00 W/m2 SCT
01:00 3.5 °C 0.9 °C 1017.2 hPa South 4.8 km/h 12.9 km/h 83 % 0 mm 0.00 W/m2 SCT
01:05 3.5 °C 0.9 °C 1017.5 hPa South 8 km/h 11.3 km/h 83 % 0 mm 0.00 W/m2 SCT
01:15 3.6 °C 1.2 °C 1017.2 hPa SSW 8 km/h 11.3 km/h 84 % 0 mm 0.00 W/m2 SCT
01:20 3.6 °C 1.2 °C 1017.2 hPa SW 8 km/h 11.3 km/h 84 % 0 mm 0.00 W/m2 SCT
01:25 3.5 °C 1.1 °C 1017.2 hPa SSW 4.8 km/h 11.3 km/h 84 % 0 mm 0.00 W/m2 SCT
01:30 3.4 °C 0.9 °C 1017.5 hPa South 4.8 km/h 8 km/h 84 % 0 mm 0.00 W/m2 SCT
01:35 3.3 °C 0.8 °C 1017.5 hPa South 4.8 km/h 11.3 km/h 84 % 0 mm 0.00 W/m2 SCT
01:40 3.2 °C 0.8 °C 1017.5 hPa SSW 4.8 km/h 14.5 km/h 84 % 0 mm 0.00 W/m2 SCT
01:45 3.1 °C 0.7 °C 1017.5 hPa SSW 8 km/h 9.7 km/h 84 % 0 mm 0.00 W/m2 SCT
01:50 3 °C 0.6 °C 1017.5 hPa SW 1.6 km/h 9.7 km/h 84 % 0 mm 0.00 W/m2 SCT
01:55 3 °C 0.6 °C 1017.5 hPa SW 8 km/h 11.3 km/h 84 % 0 mm 0.00 W/m2 SCT
02:00 3 °C 0.6 °C 1017.2 hPa SSW 4.8 km/h 11.3 km/h 84 % 0 mm 0.00 W/m2 SCT
02:05 2.9 °C 0.6 °C 1017.2 hPa SSW 4.8 km/h 9.7 km/h 85 % 0 mm 0.00 W/m2 SCT
02:10 2.8 °C 0.5 °C 1017.2 hPa South 4.8 km/h 14.5 km/h 85 % 0 mm 0.00 W/m2 SCT
02:15 2.7 °C 0.4 °C 1017.5 hPa South 3.2 km/h 11.3 km/h 85 % 0 mm 0.00 W/m2 SCT
02:20 2.4 °C 0.2 °C 1017.5 hPa South 8 km/h 11.3 km/h 85 % 0 mm 0.00 W/m2 SCT
02:25 2.2 °C -0.1 °C 1017.2 hPa South 8 km/h 11.3 km/h 85 % 0 mm 0.00 W/m2 SCT
02:30 2.2 °C -0.1 °C 1017.2 hPa South 12.9 km/h 14.5 km/h 85 % 0 mm 0.00 W/m2 SCT
02:35 1.8 °C -1.1 °C 1017.5 hPa South 8 km/h 14.5 km/h 81 % 0 mm 0.00 W/m2 SCT
02:40 1.8 °C -1.1 °C 1017.5 hPa South 11.3 km/h 14.5 km/h 81 % 0 mm 0.00 W/m2 SCT
02:45 1.8 °C -1.1 °C 1017.2 hPa South 9.7 km/h 16.1 km/h 81 % 0 mm 0.00 W/m2 SCT
02:50 1.8 °C -1.1 °C 1017.5 hPa South 4.8 km/h 16.1 km/h 81 % 0 mm 0.00 W/m2 SCT
02:55 1.8 °C -1.1 °C 1017.2 hPa SSW 3.2 km/h 11.3 km/h 81 % 0 mm 0.00 W/m2 SCT
03:00 1.8 °C -0.9 °C 1017.2 hPa South 8 km/h 8 km/h 82 % 0 mm 0.00 W/m2 SCT
03:05 1.8 °C -0.9 °C 1017.2 hPa South 3.2 km/h 8 km/h 82 % 0 mm 0.00 W/m2 SCT
03:10 1.7 °C -1.1 °C 1017.2 hPa South 8 km/h 11.3 km/h 82 % 0 mm 0.00 W/m2 SCT
03:15 1.5 °C -1.2 °C 1017.5 hPa South 3.2 km/h 11.3 km/h 82 % 0 mm 0.00 W/m2 SCT
03:20 1.4 °C -1.3 °C 1017.2 hPa South 8 km/h 11.3 km/h 82 % 0 mm 0.00 W/m2 SCT
03:25 1.3 °C -1.4 °C 1017.2 hPa SSW 4.8 km/h 11.3 km/h 82 % 0 mm 0.00 W/m2 SCT
03:30 1.3 °C -1.4 °C 1017.5 hPa SSW 4.8 km/h 11.3 km/h 82 % 0 mm 0.00 W/m2 SCT
03:35 1.3 °C -1.4 °C 1017.5 hPa South 8 km/h 12.9 km/h 82 % 0 mm 0.00 W/m2 SCT
03:40 1.3 °C -1.4 °C 1017.2 hPa South 4.8 km/h 11.3 km/h 82 % 0 mm 0.00 W/m2 SCT
03:45 1.3 °C -1.4 °C 1017.2 hPa South 4.8 km/h 11.3 km/h 82 % 0 mm 0.00 W/m2 SCT
03:50 1.3 °C -1.4 °C 1017.2 hPa South 3.2 km/h 8 km/h 82 % 0 mm 0.00 W/m2 SCT
03:55 1.3 °C -1.4 °C 1017.2 hPa Calm   11.3 km/h 82 % 0 mm 0.00 W/m2 SCT
04:00 1.2 °C -1.6 °C 1017.2 hPa South 1.6 km/h 4.8 km/h 82 % 0 mm 0.00 W/m2 SCT
04:05 1.2 °C -1.6 °C 1017.2 hPa South 4.8 km/h 8 km/h 82 % 0 mm 0.00 W/m2 SCT
04:10 1.2 °C -1.4 °C 1017.2 hPa South 1.6 km/h 9.7 km/h 83 % 0 mm 0.00 W/m2 SCT
04:15 1.4 °C -1.2 °C 1017.2 hPa South 1.6 km/h 8 km/h 83 % 0 mm 0.00 W/m2 SCT
04:20 1.4 °C -1.2 °C 1017.2 hPa South 3.2 km/h 9.7 km/h 83 % 0 mm 0.00 W/m2 SCT
04:25 1.5 °C -1.1 °C 1017.2 hPa South 4.8 km/h 9.7 km/h 83 % 0 mm 0.00 W/m2 SCT
04:30 1.6 °C -1 °C 1017.2 hPa South 8 km/h 12.9 km/h 83 % 0 mm 0.00 W/m2 SCT
04:35 1.6 °C -1 °C 1017.2 hPa South 11.3 km/h 17.7 km/h 83 % 0 mm 0.00 W/m2 SCT
04:40 1.6 °C -1 °C 1016.8 hPa South 11.3 km/h 16.1 km/h 83 % 0 mm 0.00 W/m2 SCT
04:45 1.6 °C -1 °C 1017.2 hPa South 12.9 km/h 16.1 km/h 83 % 0 mm 0.00 W/m2 SCT
04:50 1.6 °C -1 °C 1016.8 hPa South 9.7 km/h 19.3 km/h 83 % 0 mm 0.00 W/m2 SCT
04:55 1.6 °C -1 °C 1016.8 hPa South 14.5 km/h 19.3 km/h 83 % 0 mm 0.00 W/m2 SCT
05:00 2 °C -0.1 °C 1017.2 hPa South 11.3 km/h 19.3 km/h 86 % 0 mm 0.00 W/m2 SCT
05:05 2 °C -0.1 °C 1016.8 hPa South 9.7 km/h 16.1 km/h 86 % 0 mm 0.00 W/m2 SCT
05:10 2 °C -0.3 °C 1016.8 hPa South 14.5 km/h 19.3 km/h 85 % 0 mm 0.00 W/m2 SCT
05:15 2.1 °C -0.2 °C 1016.8 hPa South 11.3 km/h 19.3 km/h 85 % 0 mm 0.00 W/m2 SCT
05:20 2.1 °C -0.2 °C 1016.8 hPa South 12.9 km/h 19.3 km/h 85 % 0 mm 0.00 W/m2 SCT
05:25 2.1 °C -0.3 °C 1016.5 hPa SSW 12.9 km/h 20.9 km/h 84 % 0 mm 0.00 W/m2 SCT
05:30 2.2 °C -0.2 °C 1016.8 hPa SSW 12.9 km/h 20.9 km/h 84 % 0 mm 0.00 W/m2 SCT
05:35 2.4 °C -0.1 °C 1016.8 hPa South 9.7 km/h 19.3 km/h 84 % 0 mm 0.00 W/m2 SCT
05:40 2.6 °C 0.2 °C 1016.8 hPa South 8 km/h 12.9 km/h 84 % 0 mm 0.00 W/m2 SCT
05:45 2.7 °C 0.3 °C 1016.8 hPa South 12.9 km/h 19.3 km/h 84 % 0 mm 0.00 W/m2 SCT
05:50 2.9 °C 0.4 °C 1016.5 hPa South 11.3 km/h 16.1 km/h 84 % 0 mm 0.00 W/m2 SCT
05:55 3 °C 0.4 °C 1016.8 hPa South 8 km/h 14.5 km/h 83 % 0 mm 0.00 W/m2 SCT
06:00 3.2 °C 0.6 °C 1016.5 hPa South 11.3 km/h 17.7 km/h 83 % 0 mm 0.00 W/m2 SCT
06:05 3.1 °C 0.3 °C 1016.5 hPa South 12.9 km/h 17.7 km/h 82 % 0 mm 0.00 W/m2 SCT
06:10 2.9 °C 0.3 °C 1016.5 hPa South 11.3 km/h 16.1 km/h 83 % 0 mm 0.00 W/m2 SCT
06:15 2.7 °C 0.1 °C 1016.1 hPa South 11.3 km/h 16.1 km/h 83 % 0 mm 0.00 W/m2 SCT
06:20 2.5 °C -0.1 °C 1016.1 hPa South 9.7 km/h 14.5 km/h 83 % 0 mm 0.00 W/m2 BKN
06:25 2.5 °C -0.1 °C 1016.5 hPa South 11.3 km/h 19.3 km/h 83 % 0 mm 0.00 W/m2 BKN
06:30 2.3 °C -0.3 °C 1016.5 hPa South 8 km/h 14.5 km/h 83 % 0 mm 0.00 W/m2 BKN
06:35 2.2 °C -0.4 °C 1016.8 hPa South 9.7 km/h 16.1 km/h 83 % 0 mm 0.00 W/m2 BKN
06:40 2.1 °C -0.5 °C 1016.5 hPa South 8 km/h 14.5 km/h 83 % 0 mm 0.00 W/m2 BKN
06:45 2.1 °C -0.5 °C 1016.5 hPa South 8 km/h 14.5 km/h 83 % 0 mm 0.00 W/m2 BKN
06:50 2.2 °C -0.4 °C 1016.5 hPa South 11.3 km/h 19.3 km/h 83 % 0 mm 0.00 W/m2 BKN
06:55 2.5 °C 0.1 °C 1016.5 hPa South 14.5 km/h 20.9 km/h 84 % 0 mm 0.00 W/m2 BKN
07:00 2.5 °C 0.1 °C 1016.1 hPa South 14.5 km/h 20.9 km/h 84 % 0 mm 0.00 W/m2 BKN
07:05 2.6 °C 0.2 °C 1016.5 hPa South 12.9 km/h 20.9 km/h 84 % 0 mm 0.00 W/m2 BKN
07:10 2.7 °C 0.3 °C 1016.1 hPa South 12.9 km/h 20.9 km/h 84 % 0 mm 0.00 W/m2 BKN
07:15 2.7 °C 0.3 °C 1016.1 hPa South 11.3 km/h 20.9 km/h 84 % 0 mm 0.00 W/m2 BKN
07:20 2.7 °C 0.3 °C 1016.1 hPa South 14.5 km/h 17.7 km/h 84 % 0 mm 0.00 W/m2 BKN
07:25 2.7 °C 0.3 °C 1016.1 hPa South 11.3 km/h 17.7 km/h 84 % 0 mm 0.00 W/m2 BKN
07:30 2.7 °C 0.3 °C 1016.5 hPa South 9.7 km/h 20.9 km/h 84 % 0 mm 0.00 W/m2 BKN
07:35 2.8 °C 0.4 °C 1016.1 hPa South 14.5 km/h 19.3 km/h 84 % 0 mm 0.00 W/m2 BKN
07:40 2.8 °C 0.4 °C 1016.1 hPa South 11.3 km/h 19.3 km/h 84 % 0 mm 0.00 W/m2 BKN
07:45 2.8 °C 0.4 °C 1016.1 hPa South 9.7 km/h 19.3 km/h 84 % 0 mm 0.00 W/m2 BKN
07:50 2.7 °C 0.1 °C 1016.5 hPa South 8 km/h 14.5 km/h 83 % 0 mm 0.00 W/m2 BKN
07:55 2.7 °C 0.1 °C 1016.1 hPa South 4.8 km/h 12.9 km/h 83 % 0 mm 0.00 W/m2 BKN
08:00 2.6 °C 0 °C 1016.1 hPa South 9.7 km/h 12.9 km/h 83 % 0 mm 0.00 W/m2 BKN
08:05 2.6 °C 0 °C 1016.1 hPa South 8 km/h 12.9 km/h 83 % 0 mm 0.00 W/m2 BKN
08:10 2.6 °C 0.2 °C 1016.1 hPa SSE 4.8 km/h 12.9 km/h 84 % 0 mm 0.00 W/m2 BKN
08:15 2.6 °C 0.2 °C 1016.1 hPa SSE 8 km/h 12.9 km/h 84 % 0 mm 0.00 W/m2 BKN
08:20 2.6 °C 0.2 °C 1016.5 hPa SSE 8 km/h 12.9 km/h 84 % 0 mm 0.00 W/m2 BKN
08:25 2.7 °C 0.3 °C 1016.1 hPa SSE 9.7 km/h 16.1 km/h 84 % 0 mm 0.00 W/m2 BKN
08:30 2.8 °C 0.4 °C 1016.5 hPa SSE 8 km/h 12.9 km/h 84 % 0 mm 0.00 W/m2 BKN
08:35 2.9 °C 0.4 °C 1016.5 hPa SSE 9.7 km/h 12.9 km/h 84 % 0 mm 0.00 W/m2 BKN
08:40 3.2 °C 0.8 °C 1016.5 hPa South 9.7 km/h 19.3 km/h 84 % 0 mm 0.00 W/m2 BKN
08:45 3.3 °C 0.8 °C 1016.1 hPa South 14.5 km/h 17.7 km/h 84 % 0 mm 0.00 W/m2 BKN
08:50 3.5 °C 1.1 °C 1016.1 hPa South 11.3 km/h 20.9 km/h 84 % 0 mm 0.00 W/m2 BKN
08:55 3.6 °C 1.2 °C 1016.1 hPa South 11.3 km/h 20.9 km/h 84 % 0 mm 0.00 W/m2 BKN
09:00 3.8 °C 1.3 °C 1016.5 hPa SSE 14.5 km/h 30.6 km/h 84 % 0 mm 0.00 W/m2 BKN
09:05 3.8 °C 1.3 °C 1016.1 hPa SE 19.3 km/h 20.9 km/h 84 % 0 mm 0.00 W/m2 BKN
09:10 4 °C 1.2 °C 1016.1 hPa SSE 12.9 km/h 24.1 km/h 82 % 0 mm 0.00 W/m2 BKN
09:15 4.2 °C 1.4 °C 1016.1 hPa South 14.5 km/h 22.5 km/h 82 % 0 mm 0.00 W/m2 BKN
09:20 4.4 °C 1.6 °C 1016.1 hPa South 16.1 km/h 25.7 km/h 82 % 0 mm 0.00 W/m2 BKN
09:25 4.4 °C 1.6 °C 1015.8 hPa South 12.9 km/h 25.7 km/h 82 % 0 mm 0.00 W/m2 BKN
09:30 4.5 °C 1.7 °C 1016.1 hPa South 14.5 km/h 24.1 km/h 82 % 0 mm 0.00 W/m2 BKN
09:35 4.5 °C 1.5 °C 1016.1 hPa South 14.5 km/h 24.1 km/h 81 % 0 mm 0.00 W/m2 BKN
09:40 4.6 °C 1.6 °C 1016.5 hPa South 4.8 km/h 19.3 km/h 81 % 0 mm 0.00 W/m2 BKN
09:45 4.8 °C 2 °C 1016.1 hPa South 11.3 km/h 19.3 km/h 82 % 0 mm 0.00 W/m2 BKN
09:50 5 °C 1.8 °C 1016.1 hPa Calm   11.3 km/h 80 % 0 mm 0.00 W/m2 BKN
09:55 5 °C 1.8 °C 1015.8 hPa Calm   11.3 km/h 80 % 0 mm 0.00 W/m2 BKN
10:00 5 °C 2 °C 1016.1 hPa South 1.6 km/h 6.4 km/h 81 % 0 mm 0.00 W/m2 BKN
10:05 5.1 °C 1.9 °C 1016.1 hPa South 1.6 km/h 8 km/h 80 % 0 mm 0.00 W/m2 BKN
10:10 5.2 °C 2 °C 1015.8 hPa SSE 3.2 km/h 8 km/h 80 % 0 mm 0.00 W/m2 BKN
10:15 5.2 °C 2.1 °C 1015.8 hPa SE 1.6 km/h 11.3 km/h 80 % 0 mm 0.00 W/m2 BKN
10:20 5.3 °C 1.9 °C 1015.8 hPa Calm   6.4 km/h 79 % 0 mm 0.00 W/m2 BKN
10:25 5.3 °C 1.9 °C 1015.8 hPa Calm   6.4 km/h 79 % 0 mm 0.00 W/m2 BKN
10:30 5.4 °C 2.1 °C 1015.8 hPa Calm   1.6 km/h 79 % 0 mm 0.00 W/m2 BKN
10:35 5.5 °C 2.3 °C 1015.8 hPa Calm   3.2 km/h 80 % 0 mm 0.00 W/m2 BKN
10:40 5.6 °C 2.2 °C 1015.5 hPa NNE 1.6 km/h 6.4 km/h 79 % 0 mm 0.00 W/m2 BKN
10:45 5.7 °C 2.5 °C 1015.5 hPa Calm   4.8 km/h 80 % 0 mm 0.00 W/m2 BKN
10:50 5.8 °C 2.6 °C 1015.5 hPa ENE 1.6 km/h 8 km/h 80 % 0 mm 0.00 W/m2 BKN
10:55 6 °C 2.6 °C 1015.5 hPa East 8 km/h 11.3 km/h 79 % 0 mm 0.00 W/m2 BKN
11:00 6.2 °C 2.8 °C 1015.5 hPa SSE 9.7 km/h 22.5 km/h 79 % 0 mm 0.00 W/m2 BKN
11:05 6.2 °C 2.8 °C 1015.1 hPa South 19.3 km/h 22.5 km/h 79 % 0 mm 0.00 W/m2 BKN
11:10 6.7 °C 3.3 °C 1015.1 hPa South 24.1 km/h 29 km/h 79 % 0 mm 0.00 W/m2 BKN
11:15 6.8 °C 3.2 °C 1015.1 hPa South 14.5 km/h 29 km/h 78 % 0 mm 0.00 W/m2 BKN
11:20 6.9 °C 3.3 °C 1015.1 hPa South 14.5 km/h 29 km/h 78 % 0 mm 0.00 W/m2 BKN
11:25 6.9 °C 3.3 °C 1015.1 hPa South 9.7 km/h 29 km/h 78 % 0 mm 0.00 W/m2 BKN
11:30 7 °C 3.2 °C 1015.1 hPa South 16.1 km/h 29 km/h 77 % 0 mm 0.00 W/m2 BKN
11:35 7.1 °C 3.2 °C 1015.1 hPa SSE 14.5 km/h 24.1 km/h 76 % 0 mm 0.00 W/m2 BKN
11:40 7.1 °C 3.3 °C 1015.1 hPa SSE 11.3 km/h 22.5 km/h 77 % 0 mm 0.00 W/m2 BKN
11:45 7.1 °C 3.3 °C 1015.1 hPa South 9.7 km/h 22.5 km/h 77 % 0 mm 0.00 W/m2 BKN
11:50 7.1 °C 3.3 °C 1015.1 hPa South 12.9 km/h 20.9 km/h 77 % 0 mm 0.00 W/m2 BKN
11:55 7.1 °C 3.5 °C 1014.8 hPa South 12.9 km/h 25.7 km/h 78 % 0 mm 0.00 W/m2 BKN
12:00 7.1 °C 3.7 °C 1014.8 hPa South 11.3 km/h 27.4 km/h 79 % 0 mm 0.00 W/m2 BKN
12:05 7.2 °C 3.8 °C 1014.8 hPa SSE 12.9 km/h 27.4 km/h 79 % 0 mm 0.00 W/m2 BKN
12:10 7.1 °C 3.9 °C 1014.8 hPa South 19.3 km/h 25.7 km/h 80 % 0 mm 0.00 W/m2 BKN
12:15 7.2 °C 4.2 °C 1014.4 hPa SSE 19.3 km/h 33.8 km/h 81 % 0 mm 0.00 W/m2 BKN
12:20 7.2 °C 4.2 °C 1014.4 hPa SE 11.3 km/h 22.5 km/h 81 % 0 mm 0.00 W/m2 BKN
12:25 7.2 °C 4.3 °C 1014.4 hPa SSE 9.7 km/h 19.3 km/h 82 % 0 mm 0.00 W/m2 BKN
12:30 7.2 °C 4.3 °C 1014.1 hPa SSE 4.8 km/h 22.5 km/h 82 % 0.25 mm 0.00 W/m2 RA
12:35 7.2 °C 4.3 °C 1014.1 hPa SSE 11.3 km/h 19.3 km/h 82 % 0 mm 0.00 W/m2 RA
12:40 7.2 °C 4.5 °C 1014.1 hPa SSE 4.8 km/h 25.7 km/h 83 % 0 mm 0.00 W/m2 BKN
12:45 7.2 °C 4.5 °C 1013.8 hPa SSE 4.8 km/h 24.1 km/h 83 % 0 mm 0.00 W/m2 BKN
Garrymore Weather Station, Geashill, Tullamore, Offaly, Ireland
Compliments of Weather Underground - 2 mb